Accedi per prenotare

Caricamento...

Situazione Metar e Taf aeroporto Pisa - Effemeridi Aeroporto Lucca

[Source: ADDS]
METAR
LIRP 181945Z 14001KT 3000 BR MIFG NSC 04/04 Q1032 NOSIG =
AMD LIRP 182000Z 1820/1918 11006KT 6000 NSC TEMPO 1821/1906 2000 MIFG NSC
TAF
AMD LIRP 182000Z 1820/1918 11006KT 6000 NSC TEMPO 1821/1906 2000 MIFG NSC =
SR / SS: 06:46 / 16:14 UTC (Effemeridi LIQL 2022-01-18)